createdAt,value
2023-04-23T00:00:12.235Z,13.64
2023-04-23T00:02:40.932Z,13.66
2023-04-23T00:05:16.199Z,13.56
2023-04-23T00:07:53.312Z,13.53
2023-04-23T00:10:23.302Z,13.68
2023-04-23T00:12:51.591Z,13.63
2023-04-23T00:15:21.549Z,13.59
2023-04-23T00:17:49.678Z,13.47
2023-04-23T00:20:18.210Z,13.53
2023-04-23T00:22:45.906Z,13.56
2023-04-23T00:25:13.712Z,13.57
2023-04-23T00:27:42.819Z,13.54
2023-04-23T00:30:11.162Z,13.54
2023-04-23T00:32:39.037Z,13.54
2023-04-23T00:35:07.899Z,13.53
2023-04-23T00:37:35.705Z,13.45
2023-04-23T00:40:04.622Z,13.51
2023-04-23T00:42:32.889Z,13.47
2023-04-23T00:45:02.655Z,13.49
2023-04-23T00:47:30.845Z,13.49
2023-04-23T00:50:00.303Z,13.43
2023-04-23T00:52:29.222Z,13.41
2023-04-23T00:54:57.763Z,13.35
2023-04-23T00:57:26.705Z,13.36
2023-04-23T00:59:56.868Z,13.32
2023-04-23T01:02:28.069Z,13.32
2023-04-23T01:04:56.747Z,13.32
2023-04-23T01:07:24.788Z,13.31
2023-04-23T01:09:53.043Z,13.27
2023-04-23T01:12:20.882Z,13.24
2023-04-23T01:14:48.945Z,13.28
2023-04-23T01:17:17.081Z,13.24
2023-04-23T01:19:46.200Z,13.25
2023-04-23T01:22:15.996Z,13.30
2023-04-23T01:24:44.024Z,13.28
2023-04-23T01:27:12.199Z,13.26
2023-04-23T01:29:40.506Z,13.22
2023-04-23T01:32:09.019Z,13.07
2023-04-23T01:34:39.740Z,13.21
2023-04-23T01:37:08.279Z,13.21
2023-04-23T01:39:37.468Z,13.19
2023-04-23T01:42:07.037Z,13.19
2023-04-23T01:44:34.918Z,13.17
2023-04-23T01:47:05.089Z,13.15
2023-04-23T01:49:34.865Z,13.14
2023-04-23T01:52:02.573Z,13.13
2023-04-23T01:54:30.421Z,13.11
2023-04-23T01:56:59.574Z,13.11
2023-04-23T01:59:27.456Z,13.13
2023-04-23T02:01:55.249Z,13.11
2023-04-23T02:04:25.384Z,13.07
2023-04-23T02:06:53.277Z,13.05
2023-04-23T02:09:21.228Z,13.09
2023-04-23T02:11:49.479Z,13.04
2023-04-23T02:14:18.687Z,13.01
2023-04-23T02:16:48.523Z,13.02
2023-04-23T02:19:16.991Z,13.06
2023-04-23T02:21:45.189Z,12.98
2023-04-23T02:24:13.369Z,13.05
2023-04-23T02:26:41.318Z,13.02
2023-04-23T02:29:09.143Z,12.98
2023-04-23T02:31:38.363Z,13.01
2023-04-23T02:34:06.365Z,12.96
2023-04-23T02:36:34.167Z,12.92
2023-04-23T02:39:02.263Z,12.88
2023-04-23T02:41:30.027Z,12.86
2023-04-23T02:43:57.723Z,12.84
2023-04-23T02:46:25.623Z,12.87
2023-04-23T02:48:54.796Z,12.86
2023-04-23T02:51:22.675Z,12.85
2023-04-23T02:53:50.466Z,12.83
2023-04-23T02:56:18.321Z,12.82
2023-04-23T02:58:46.080Z,12.80
2023-04-23T03:01:14.053Z,12.86
2023-04-23T03:03:42.843Z,12.86
2023-04-23T03:06:12.335Z,12.88
2023-04-23T03:08:40.706Z,12.89
2023-04-23T03:11:08.544Z,12.91
2023-04-23T03:13:36.369Z,12.87
2023-04-23T03:16:04.220Z,12.89
2023-04-23T03:18:32.173Z,12.84
2023-04-23T03:21:00.028Z,12.84
2023-04-23T03:23:29.381Z,12.85
2023-04-23T03:25:57.252Z,12.83
2023-04-23T03:28:25.301Z,12.84
2023-04-23T03:30:53.106Z,12.83
2023-04-23T03:33:21.382Z,12.82
2023-04-23T03:35:49.133Z,12.81
2023-04-23T03:38:21.896Z,12.81
2023-04-23T03:40:52.776Z,12.82
2023-04-23T03:43:20.682Z,12.86
2023-04-23T03:46:20.670Z,12.85
2023-04-23T03:48:48.516Z,12.82
2023-04-23T03:51:24.207Z,12.79
2023-04-23T03:53:52.387Z,12.83
2023-04-23T03:56:57.590Z,12.79
2023-04-23T03:59:29.224Z,12.77
2023-04-23T04:02:00.125Z,12.78
2023-04-23T04:04:28.336Z,12.76
2023-04-23T04:06:57.026Z,12.77
2023-04-23T04:09:28.198Z,12.79
2023-04-23T04:11:57.318Z,12.85
2023-04-23T04:14:25.087Z,12.87
2023-04-23T04:16:52.860Z,12.86
2023-04-23T04:19:21.339Z,12.91
2023-04-23T04:21:49.177Z,12.87
2023-04-23T04:24:17.256Z,12.90
2023-04-23T04:26:45.212Z,12.90
2023-04-23T04:29:14.985Z,12.95
2023-04-23T04:31:42.787Z,12.97
2023-04-23T04:34:10.561Z,12.95
2023-04-23T04:36:38.273Z,12.95
2023-04-23T04:39:06.567Z,12.96
2023-04-23T04:41:34.762Z,12.97
2023-04-23T04:44:02.522Z,12.97
2023-04-23T04:46:31.906Z,12.99
2023-04-23T04:48:59.647Z,13.01
2023-04-23T04:51:28.550Z,13.02
2023-04-23T04:53:56.633Z,12.99
2023-04-23T04:56:25.813Z,13.06
2023-04-23T04:58:53.571Z,13.09
2023-04-23T05:01:21.671Z,13.13
2023-04-23T05:03:51.020Z,13.11
2023-04-23T05:06:18.869Z,13.11
2023-04-23T05:08:48.207Z,13.16
2023-04-23T05:11:17.068Z,13.11
2023-04-23T05:13:45.089Z,13.17
2023-04-23T05:16:12.989Z,13.20
2023-04-23T05:18:40.797Z,13.27
2023-04-23T05:21:10.259Z,13.33
2023-04-23T05:23:38.138Z,13.26
2023-04-23T05:26:06.401Z,13.35
2023-04-23T05:28:34.329Z,13.37
2023-04-23T05:31:02.343Z,13.36
2023-04-23T05:33:33.563Z,13.43
2023-04-23T05:36:04.224Z,13.43
2023-04-23T05:38:33.331Z,13.45
2023-04-23T05:41:01.186Z,13.47
2023-04-23T05:43:33.672Z,13.49
2023-04-23T05:46:02.942Z,13.48
2023-04-23T05:48:30.815Z,13.53
2023-04-23T05:50:59.108Z,13.56
2023-04-23T05:53:27.543Z,13.56
2023-04-23T05:55:57.387Z,13.58
2023-04-23T05:58:25.794Z,13.56
2023-04-23T06:00:53.923Z,13.62
2023-04-23T06:03:21.836Z,13.66
2023-04-23T06:05:50.110Z,13.65
2023-04-23T06:08:18.640Z,13.66
2023-04-23T06:10:47.779Z,13.70
2023-04-23T06:13:17.323Z,13.75
2023-04-23T06:15:45.182Z,13.71
2023-04-23T06:18:13.152Z,13.76
2023-04-23T06:20:41.060Z,13.79
2023-04-23T06:23:08.985Z,13.78
2023-04-23T06:25:38.591Z,13.82
2023-04-23T06:28:06.419Z,13.83
2023-04-23T06:30:44.901Z,13.73
2023-04-23T06:33:13.426Z,13.69
2023-04-23T06:35:43.284Z,13.87
2023-04-23T06:38:11.065Z,13.96
2023-04-23T06:40:39.025Z,13.98
2023-04-23T06:43:09.988Z,14.04
2023-04-23T06:45:59.344Z,14.08
2023-04-23T06:48:29.166Z,14.10
2023-04-23T06:50:57.000Z,14.09
2023-04-23T06:53:25.049Z,14.07
2023-04-23T06:55:52.737Z,14.15
2023-04-23T06:58:20.945Z,14.15
2023-04-23T07:00:48.792Z,14.20
2023-04-23T07:03:18.127Z,14.23
2023-04-23T07:05:45.996Z,14.23
2023-04-23T07:08:15.854Z,14.21
2023-04-23T07:10:43.602Z,14.25
2023-04-23T07:13:11.917Z,14.33
2023-04-23T07:15:45.645Z,14.39
2023-04-23T07:18:13.706Z,14.41
2023-04-23T07:20:43.018Z,14.44
2023-04-23T07:23:13.405Z,14.50
2023-04-23T07:25:42.323Z,14.51
2023-04-23T07:28:10.174Z,14.54
2023-04-23T07:30:38.067Z,14.64
2023-04-23T07:33:08.592Z,14.73
2023-04-23T07:35:36.825Z,14.68
2023-04-23T07:38:06.069Z,14.72
2023-04-23T07:40:33.852Z,14.69
2023-04-23T07:43:01.669Z,14.66
2023-04-23T07:45:29.506Z,14.70
2023-04-23T07:47:57.675Z,14.72
2023-04-23T07:50:25.788Z,14.60
2023-04-23T07:52:53.566Z,14.68
2023-04-23T07:55:22.855Z,14.67
2023-04-23T07:57:50.646Z,14.63
2023-04-23T08:00:19.069Z,14.63
2023-04-23T08:02:47.078Z,14.63
2023-04-23T08:05:15.095Z,14.63
2023-04-23T08:07:42.801Z,14.67
2023-04-23T08:10:10.927Z,14.70
2023-04-23T08:12:39.989Z,14.73
2023-04-23T08:15:08.374Z,14.76
2023-04-23T08:17:40.572Z,14.77
2023-04-23T08:20:09.445Z,14.72
2023-04-23T08:22:37.336Z,14.90
2023-04-23T08:25:05.740Z,15.03
2023-04-23T08:27:33.533Z,15.13
2023-04-23T08:30:02.734Z,15.22
2023-04-23T08:32:30.583Z,15.31
2023-04-23T08:34:58.684Z,15.44
2023-04-23T08:37:30.987Z,15.57
2023-04-23T08:39:59.412Z,15.69
2023-04-23T08:42:37.621Z,15.73
2023-04-23T08:45:08.212Z,15.81
2023-04-23T08:47:36.856Z,15.85
2023-04-23T08:50:06.058Z,15.91
2023-04-23T08:52:36.238Z,15.93
2023-04-23T08:55:10.618Z,15.98
2023-04-23T08:57:40.455Z,16.04
2023-04-23T09:00:11.565Z,16.01
2023-04-23T09:02:41.956Z,16.05
2023-04-23T09:05:10.484Z,16.02
2023-04-23T09:07:38.556Z,16.05
2023-04-23T09:10:07.997Z,16.10
2023-04-23T09:12:37.155Z,16.10
2023-04-23T09:15:10.439Z,16.06
2023-04-23T09:17:41.353Z,16.04
2023-04-23T09:20:10.381Z,16.01
2023-04-23T09:22:46.042Z,16.10
2023-04-23T09:25:17.457Z,16.21
2023-04-23T09:27:46.109Z,16.28
2023-04-23T09:30:14.886Z,16.27
2023-04-23T09:32:46.468Z,16.44
2023-04-23T09:35:16.500Z,16.51
2023-04-23T09:37:48.317Z,16.59
2023-04-23T09:40:17.678Z,16.58
2023-04-23T09:42:49.713Z,16.52
2023-04-23T09:45:18.693Z,16.73
2023-04-23T09:47:53.774Z,16.65
2023-04-23T09:50:32.464Z,16.59
2023-04-23T09:53:00.497Z,16.59
2023-04-23T09:55:30.751Z,16.67
2023-04-23T09:57:59.397Z,16.69
2023-04-23T10:00:30.622Z,16.73
2023-04-23T10:03:01.147Z,16.80
2023-04-23T10:05:37.249Z,16.94
2023-04-23T10:08:13.969Z,17.07
2023-04-23T10:13:12.947Z,17.20
2023-04-23T10:15:40.691Z,17.30
2023-04-23T10:18:10.551Z,17.25
2023-04-23T10:20:38.363Z,17.27
2023-04-23T10:23:07.211Z,17.22
2023-04-23T10:25:36.065Z,17.15
2023-04-23T10:28:05.890Z,17.09
2023-04-23T10:30:34.166Z,17.12
2023-04-23T10:33:02.865Z,17.33
2023-04-23T10:35:32.230Z,17.22
2023-04-23T10:38:00.125Z,17.15
2023-04-23T10:40:33.261Z,17.10
2023-04-23T10:43:01.685Z,17.08
2023-04-23T10:45:32.902Z,17.44
2023-04-23T10:48:00.753Z,17.57
2023-04-23T10:50:30.490Z,17.50
2023-04-23T10:52:59.682Z,17.32
2023-04-23T10:55:29.051Z,17.11
2023-04-23T10:58:02.249Z,17.02
2023-04-23T11:00:45.421Z,16.97
2023-04-23T11:03:31.665Z,16.97
2023-04-23T11:06:02.850Z,17.01
2023-04-23T11:08:33.081Z,17.22
2023-04-23T11:11:02.453Z,17.36
2023-04-23T11:13:31.193Z,17.37
2023-04-23T11:16:18.627Z,17.49
2023-04-23T11:18:56.780Z,18.09
2023-04-23T11:21:44.415Z,18.39
2023-04-23T11:24:13.564Z,18.90
2023-04-23T11:26:44.852Z,18.67
2023-04-23T11:29:15.549Z,18.31
2023-04-23T11:31:58.416Z,18.09
2023-04-23T11:34:30.357Z,18.01
2023-04-23T11:37:00.723Z,17.91
2023-04-23T11:39:29.800Z,17.90
2023-04-23T11:41:59.292Z,17.99
2023-04-23T11:44:27.052Z,18.00
2023-04-23T11:49:22.829Z,18.37
2023-04-23T11:51:50.624Z,18.70
2023-04-23T11:54:18.470Z,19.56
2023-04-23T11:56:54.279Z,19.78
2023-04-23T11:59:25.452Z,19.77
2023-04-23T12:01:55.658Z,19.31
2023-04-23T12:04:24.817Z,18.95
2023-04-23T12:06:54.699Z,18.75
2023-04-23T12:09:23.930Z,18.81
2023-04-23T12:11:53.368Z,18.83
2023-04-23T12:14:28.496Z,19.56
2023-04-23T12:16:57.102Z,20.72
2023-04-23T12:19:28.618Z,20.24
2023-04-23T12:21:58.180Z,19.63
2023-04-23T12:24:27.249Z,19.84
2023-04-23T12:27:04.372Z,20.19
2023-04-23T12:29:32.268Z,20.59
2023-04-23T12:32:01.383Z,19.96
2023-04-23T12:34:29.229Z,20.49
2023-04-23T12:36:57.628Z,20.49
2023-04-23T12:39:33.871Z,20.84
2023-04-23T12:42:05.154Z,21.91
2023-04-23T12:44:34.516Z,22.46
2023-04-23T12:47:04.997Z,22.51
2023-04-23T12:49:33.747Z,21.94
2023-04-23T12:52:06.793Z,20.98
2023-04-23T12:54:37.252Z,20.70
2023-04-23T12:57:08.170Z,21.51
2023-04-23T12:59:35.945Z,21.19
2023-04-23T13:02:06.672Z,21.79
2023-04-23T13:04:36.554Z,22.21
2023-04-23T13:07:05.234Z,22.50
2023-04-23T13:09:33.174Z,22.73
2023-04-23T13:12:02.494Z,22.71
2023-04-23T13:14:33.635Z,22.61
2023-04-23T13:17:01.424Z,22.17
2023-04-23T13:19:29.486Z,21.64
2023-04-23T13:21:57.264Z,21.77
2023-04-23T13:24:25.626Z,21.42
2023-04-23T13:26:58.765Z,21.03
2023-04-23T13:29:27.418Z,20.60
2023-04-23T13:31:58.118Z,20.42
2023-04-23T13:34:30.904Z,20.40
2023-04-23T13:36:59.320Z,20.41
2023-04-23T13:39:32.211Z,20.21
2023-04-23T13:42:09.053Z,20.00
2023-04-23T13:44:37.609Z,19.97
2023-04-23T13:47:08.388Z,19.94
2023-04-23T13:49:36.202Z,19.82
2023-04-23T13:52:06.805Z,19.73
2023-04-23T13:54:35.508Z,19.65
2023-04-23T13:57:03.566Z,19.50
2023-04-23T13:59:31.386Z,19.38
2023-04-23T14:01:59.178Z,19.21
2023-04-23T14:04:28.588Z,19.06
2023-04-23T14:06:58.941Z,19.00
2023-04-23T14:09:26.769Z,18.90
2023-04-23T14:11:54.662Z,18.80
2023-04-23T14:14:22.499Z,18.72
2023-04-23T14:16:52.036Z,18.43
2023-04-23T14:19:19.933Z,18.67
2023-04-23T14:21:49.233Z,18.73
2023-04-23T14:24:19.619Z,18.80
2023-04-23T14:26:49.729Z,18.81
2023-04-23T14:29:27.521Z,18.80
2023-04-23T14:31:55.299Z,18.70
2023-04-23T14:34:23.111Z,18.65
2023-04-23T14:36:53.229Z,18.63
2023-04-23T14:39:22.963Z,18.54
2023-04-23T14:41:50.648Z,18.55
2023-04-23T14:44:18.413Z,18.48
2023-04-23T14:46:46.369Z,18.38
2023-04-23T14:49:14.306Z,18.30
2023-04-23T14:51:42.639Z,18.26
2023-04-23T14:54:12.080Z,18.22
2023-04-23T14:56:39.838Z,18.14
2023-04-23T14:59:07.541Z,18.12
2023-04-23T15:01:37.140Z,18.06
2023-04-23T15:04:05.059Z,18.07
2023-04-23T15:06:38.760Z,18.00
2023-04-23T15:09:06.735Z,18.00
2023-04-23T15:11:38.614Z,17.98
2023-04-23T15:14:09.383Z,17.92
2023-04-23T15:16:47.682Z,17.89
2023-04-23T15:19:20.456Z,17.84
2023-04-23T15:21:48.836Z,17.81
2023-04-23T15:24:17.365Z,17.77
2023-04-23T15:26:47.112Z,17.72
2023-04-23T15:29:14.946Z,17.71
2023-04-23T15:31:42.862Z,17.68
2023-04-23T15:34:12.041Z,17.61
2023-04-23T15:36:40.022Z,17.58
2023-04-23T15:39:09.976Z,17.48
2023-04-23T15:41:41.572Z,17.48
2023-04-23T15:44:13.028Z,17.49
2023-04-23T15:46:41.153Z,17.42
2023-04-23T15:49:09.280Z,17.40
2023-04-23T15:51:37.409Z,17.36
2023-04-23T15:54:08.160Z,17.32
2023-04-23T15:56:36.970Z,17.27
2023-04-23T15:59:04.928Z,17.17
2023-04-23T16:01:34.272Z,17.08
2023-04-23T16:04:10.442Z,17.02
2023-04-23T16:06:39.725Z,16.93
2023-04-23T16:09:08.190Z,16.81
2023-04-23T16:11:36.284Z,16.72
2023-04-23T16:14:04.930Z,16.52
2023-04-23T16:16:34.454Z,16.66
2023-04-23T16:19:03.202Z,16.60
2023-04-23T16:21:31.277Z,16.51
2023-04-23T16:23:59.251Z,16.36
2023-04-23T16:26:28.514Z,16.32
2023-04-23T16:29:16.767Z,16.25
2023-04-23T16:31:47.208Z,16.19
2023-04-23T16:34:14.945Z,16.12
2023-04-23T16:36:42.991Z,16.06
2023-04-23T16:39:11.258Z,15.99
2023-04-23T16:41:39.254Z,15.87
2023-04-23T16:44:07.187Z,15.80
2023-04-23T16:46:35.285Z,15.61
2023-04-23T16:49:04.442Z,15.75
2023-04-23T16:51:32.579Z,15.73
2023-04-23T16:54:00.865Z,15.62
2023-04-23T16:56:28.727Z,15.64
2023-04-23T16:58:59.679Z,15.60
2023-04-23T17:01:27.547Z,15.62
2023-04-23T17:03:55.520Z,15.65
2023-04-23T17:06:29.869Z,15.64
2023-04-23T17:09:01.016Z,15.62
2023-04-23T17:11:30.433Z,15.52
2023-04-23T17:13:59.049Z,15.62
2023-04-23T17:16:27.462Z,15.58
2023-04-23T17:18:55.597Z,15.55
2023-04-23T17:21:27.551Z,15.47
2023-04-23T17:23:55.781Z,15.48
2023-04-23T17:26:23.586Z,15.54
2023-04-23T17:28:56.473Z,15.52
2023-04-23T17:31:24.260Z,15.52
2023-04-23T17:33:59.733Z,15.46
2023-04-23T17:36:31.712Z,15.45
2023-04-23T17:38:59.707Z,15.40
2023-04-23T17:41:27.665Z,15.39
2023-04-23T17:43:55.785Z,15.39
2023-04-23T17:46:23.630Z,15.40
2023-04-23T17:48:52.292Z,15.34
2023-04-23T17:51:21.401Z,15.31
2023-04-23T17:53:51.914Z,15.36
2023-04-23T17:56:20.245Z,15.34
2023-04-23T17:58:47.974Z,15.36
2023-04-23T18:01:17.569Z,15.37
2023-04-23T18:03:45.689Z,15.30
2023-04-23T18:06:13.609Z,15.33
2023-04-23T18:08:42.597Z,15.34
2023-04-23T18:11:12.664Z,15.31
2023-04-23T18:13:40.647Z,15.36
2023-04-23T18:16:08.401Z,15.24
2023-04-23T18:18:38.480Z,15.22
2023-04-23T18:21:06.375Z,15.29
2023-04-23T18:23:35.931Z,15.28
2023-04-23T18:26:03.819Z,15.21
2023-04-23T18:28:34.909Z,15.23
2023-04-23T18:31:03.157Z,15.17
2023-04-23T18:33:33.125Z,15.17
2023-04-23T18:36:03.961Z,15.17
2023-04-23T18:38:37.369Z,15.17
2023-04-23T18:41:05.319Z,15.17
2023-04-23T18:43:34.465Z,15.18
2023-04-23T18:46:03.905Z,15.16
2023-04-23T18:48:52.553Z,15.19
2023-04-23T18:51:26.473Z,15.18
2023-04-23T18:53:54.225Z,15.11
2023-04-23T18:56:21.928Z,15.11
2023-04-23T18:58:55.144Z,15.09
2023-04-23T19:01:24.160Z,15.13
2023-04-23T19:03:52.160Z,15.15
2023-04-23T19:06:22.630Z,15.13
2023-04-23T19:08:50.734Z,15.11
2023-04-23T19:11:18.495Z,15.13
2023-04-23T19:13:46.217Z,15.12
2023-04-23T19:16:16.699Z,15.02
2023-04-23T19:18:44.721Z,15.12
2023-04-23T19:21:12.422Z,15.08
2023-04-23T19:23:40.316Z,15.07
2023-04-23T19:26:08.133Z,15.10
2023-04-23T19:28:35.897Z,15.10
2023-04-23T19:31:04.561Z,15.05
2023-04-23T19:33:33.662Z,15.07
2023-04-23T19:36:01.382Z,15.04
2023-04-23T19:38:29.135Z,15.01
2023-04-23T19:40:56.958Z,14.99
2023-04-23T19:43:24.813Z,14.93
2023-04-23T19:45:52.885Z,14.95
2023-04-23T19:48:20.656Z,14.88
2023-04-23T19:50:49.905Z,14.93
2023-04-23T19:53:17.764Z,14.83
2023-04-23T19:55:45.599Z,14.84
2023-04-23T19:58:13.376Z,14.84
2023-04-23T20:00:41.880Z,14.84
2023-04-23T20:03:10.008Z,14.83
2023-04-23T20:05:38.015Z,14.81
2023-04-23T20:08:14.664Z,14.72
2023-04-23T20:10:42.632Z,14.78
2023-04-23T20:13:10.401Z,14.77
2023-04-23T20:15:38.406Z,14.83
2023-04-23T20:18:06.889Z,14.78
2023-04-23T20:20:35.688Z,14.85
2023-04-23T20:23:03.388Z,14.71
2023-04-23T20:25:33.498Z,14.71
2023-04-23T20:28:01.319Z,14.73
2023-04-23T20:30:29.107Z,14.72
2023-04-23T20:32:57.800Z,14.73
2023-04-23T20:35:25.732Z,14.72
2023-04-23T20:37:54.383Z,14.75
2023-04-23T20:40:22.689Z,14.77
2023-04-23T20:42:52.954Z,14.76
2023-04-23T20:45:22.330Z,14.76
2023-04-23T20:47:51.420Z,14.66
2023-04-23T20:50:19.230Z,14.71
2023-04-23T20:52:46.981Z,14.72
2023-04-23T20:55:14.823Z,14.66
2023-04-23T20:57:42.661Z,14.60
2023-04-23T21:00:14.827Z,14.57
2023-04-23T21:02:43.019Z,14.57
2023-04-23T21:05:12.579Z,14.56
2023-04-23T21:07:40.364Z,14.55
2023-04-23T21:10:08.671Z,14.54
2023-04-23T21:12:36.896Z,14.51
2023-04-23T21:15:05.457Z,14.54
2023-04-23T21:17:34.598Z,14.55
2023-04-23T21:20:02.382Z,14.58
2023-04-23T21:22:31.241Z,14.51
2023-04-23T21:24:58.997Z,14.47
2023-04-23T21:27:27.052Z,14.49
2023-04-23T21:29:54.826Z,14.51
2023-04-23T21:32:22.730Z,14.48
2023-04-23T21:34:51.825Z,14.47
2023-04-23T21:37:19.802Z,14.49
2023-04-23T21:39:47.590Z,14.47
2023-04-23T21:42:15.535Z,14.47
2023-04-23T21:44:43.753Z,14.46
2023-04-23T21:47:11.672Z,14.40
2023-04-23T21:49:39.674Z,14.46
2023-04-23T21:52:09.234Z,14.47
2023-04-23T21:54:36.962Z,14.43
2023-04-23T21:57:04.927Z,14.45
2023-04-23T21:59:32.701Z,14.44
2023-04-23T22:02:00.483Z,14.38
2023-04-23T22:04:29.271Z,14.35
2023-04-23T22:07:02.314Z,14.32
2023-04-23T22:09:31.628Z,14.32
2023-04-23T22:12:02.188Z,14.35
2023-04-23T22:14:31.093Z,14.35
2023-04-23T22:16:59.685Z,14.33
2023-04-23T22:19:27.530Z,14.34
2023-04-23T22:21:55.398Z,14.30
2023-04-23T22:24:23.853Z,14.25
2023-04-23T22:26:53.187Z,14.22
2023-04-23T22:29:21.027Z,14.20
2023-04-23T22:31:48.794Z,14.27
2023-04-23T22:34:16.563Z,14.27
2023-04-23T22:36:44.267Z,14.26
2023-04-23T22:39:12.889Z,14.20
2023-04-23T22:41:40.677Z,14.33
2023-04-23T22:44:10.430Z,14.28
2023-04-23T22:46:38.750Z,14.31
2023-04-23T22:49:08.134Z,14.20
2023-04-23T22:51:38.795Z,14.25
2023-04-23T22:54:06.819Z,14.26
2023-04-23T22:56:34.559Z,14.16
2023-04-23T22:59:03.711Z,14.15
2023-04-23T23:01:32.994Z,14.15
2023-04-23T23:04:00.822Z,14.13
2023-04-23T23:06:28.622Z,14.09
2023-04-23T23:08:56.577Z,14.07
2023-04-23T23:11:24.355Z,14.05
2023-04-23T23:13:52.754Z,14.05
2023-04-23T23:16:20.528Z,14.06
2023-04-23T23:18:49.961Z,14.00
2023-04-23T23:21:18.139Z,13.97
2023-04-23T23:23:45.880Z,13.96
2023-04-23T23:26:13.597Z,13.99
2023-04-23T23:28:41.841Z,13.81
2023-04-23T23:31:10.380Z,13.95
2023-04-23T23:33:39.598Z,13.98
2023-04-23T23:36:09.444Z,13.97
2023-04-23T23:38:37.187Z,13.98
2023-04-23T23:41:04.948Z,14.00
2023-04-23T23:43:32.701Z,13.95
2023-04-23T23:46:00.524Z,13.99
2023-04-23T23:48:28.481Z,13.97
2023-04-23T23:50:56.367Z,13.94
2023-04-23T23:53:25.445Z,14.02
2023-04-23T23:55:53.156Z,13.99
2023-04-23T23:58:21.667Z,14.03
